createdAt,value
2019-06-20T00:00:48.499Z,100916.76
2019-06-20T00:03:21.616Z,100928.80
2019-06-20T00:05:52.739Z,100926.70
2019-06-20T00:08:23.044Z,100922.75
2019-06-20T00:10:53.470Z,100925.91
2019-06-20T00:13:23.799Z,100934.20
2019-06-20T00:15:53.962Z,100940.06
2019-06-20T00:18:24.375Z,100939.14
2019-06-20T00:20:54.659Z,100943.66
2019-06-20T00:23:24.895Z,100936.90
2019-06-20T00:25:55.098Z,100943.01
2019-06-20T00:28:25.293Z,100937.07
2019-06-20T00:30:55.604Z,100941.48
2019-06-20T00:33:25.788Z,100942.22
2019-06-20T00:35:55.955Z,100946.03
2019-06-20T00:38:26.189Z,100940.21
2019-06-20T00:40:58.057Z,100937.67
2019-06-20T00:43:28.523Z,100931.89
2019-06-20T00:46:02.002Z,100923.84
2019-06-20T00:48:32.614Z,100928.93
2019-06-20T00:51:03.024Z,100932.48
2019-06-20T00:53:33.271Z,100934.47
2019-06-20T00:56:06.333Z,100934.26
2019-06-20T00:58:38.863Z,100935.84
2019-06-20T01:01:09.180Z,100938.02
2019-06-20T01:03:39.547Z,100938.19
2019-06-20T01:06:09.948Z,100940.74
2019-06-20T01:08:40.080Z,100930.44
2019-06-20T01:11:10.250Z,100930.23
2019-06-20T01:13:40.524Z,100929.88
2019-06-20T01:16:10.785Z,100932.88
2019-06-20T01:18:41.194Z,100918.36
2019-06-20T01:21:12.051Z,100923.74
2019-06-20T01:23:42.344Z,100924.17
2019-06-20T01:26:13.055Z,100922.38
2019-06-20T01:28:45.073Z,100915.77
2019-06-20T01:31:15.496Z,100918.70
2019-06-20T01:33:45.711Z,100920.89
2019-06-20T01:36:16.043Z,100926.52
2019-06-20T01:38:46.260Z,100922.52
2019-06-20T01:41:17.091Z,100926.23
2019-06-20T01:43:50.849Z,100922.52
2019-06-20T01:46:19.359Z,100924.08
2019-06-20T01:48:49.641Z,100930.67
2019-06-20T01:51:19.912Z,100938.37
2019-06-20T01:53:50.160Z,100937.34
2019-06-20T01:56:22.707Z,100941.91
2019-06-20T01:58:53.086Z,100937.92
2019-06-20T02:01:23.465Z,100930.80
2019-06-20T02:03:53.709Z,100938.19
2019-06-20T02:06:23.998Z,100940.93
2019-06-20T02:08:54.247Z,100939.38
2019-06-20T02:11:24.972Z,100943.67
2019-06-20T02:14:06.774Z,100942.34
2019-06-20T02:16:27.106Z,100940.69
2019-06-20T02:18:57.186Z,100953.79
2019-06-20T02:21:30.464Z,100953.23
2019-06-20T02:24:05.225Z,100951.26
2019-06-20T02:26:52.496Z,100951.61
2019-06-20T02:29:26.642Z,100947.31
2019-06-20T02:31:59.154Z,100947.33
2019-06-20T02:34:30.498Z,100952.22
2019-06-20T02:37:01.477Z,100959.01
2019-06-20T02:39:32.154Z,100954.83
2019-06-20T02:42:05.440Z,100957.62
2019-06-20T02:44:36.223Z,100962.13
2019-06-20T02:47:06.674Z,100962.57
2019-06-20T02:49:37.377Z,100959.62
2019-06-20T02:52:09.869Z,100956.84
2019-06-20T02:54:41.064Z,100970.34
2019-06-20T02:57:11.590Z,100972.28
2019-06-20T02:59:42.214Z,100972.34
2019-06-20T03:02:12.847Z,100973.28
2019-06-20T03:04:45.648Z,100980.84
2019-06-20T03:07:15.429Z,100976.84
2019-06-20T03:09:48.449Z,100976.52
2019-06-20T03:12:19.000Z,100980.50
2019-06-20T03:14:51.941Z,100979.89
2019-06-20T03:17:22.426Z,100981.25
2019-06-20T03:19:53.347Z,100979.23
2019-06-20T03:22:26.297Z,100980.41
2019-06-20T03:24:59.292Z,100983.53
2019-06-20T03:27:29.500Z,100980.18
2019-06-20T03:29:59.919Z,100989.85
2019-06-20T03:32:30.654Z,100991.42
2019-06-20T03:35:00.860Z,100991.05
2019-06-20T03:37:33.083Z,100995.04
2019-06-20T03:40:06.603Z,100996.26
2019-06-20T03:42:38.069Z,100991.23
2019-06-20T03:45:09.052Z,100994.48
2019-06-20T03:47:42.490Z,100997.46
2019-06-20T03:50:14.404Z,100997.79
2019-06-20T03:52:47.701Z,100996.03
2019-06-20T03:55:18.539Z,100999.03
2019-06-20T03:57:51.491Z,100992.71
2019-06-20T04:00:23.509Z,100997.06
2019-06-20T04:02:54.620Z,100997.31
2019-06-20T04:05:26.247Z,100994.86
2019-06-20T04:07:57.188Z,100990.32
2019-06-20T04:10:28.143Z,100991.42
2019-06-20T04:12:58.936Z,100999.57
2019-06-20T04:15:31.000Z,100994.80
2019-06-20T04:18:01.808Z,100996.00
2019-06-20T04:20:33.420Z,100998.25
2019-06-20T04:23:06.467Z,101004.95
2019-06-20T04:25:38.033Z,100999.29
2019-06-20T04:28:08.815Z,100998.47
2019-06-20T04:30:39.387Z,101004.43
2019-06-20T04:33:10.051Z,101000.91
2019-06-20T04:36:35.005Z,101000.60
2019-06-20T04:39:19.247Z,101005.61
2019-06-20T04:41:49.657Z,101007.45
2019-06-20T04:44:20.779Z,101012.17
2019-06-20T04:47:01.538Z,101008.44
2019-06-20T04:49:32.586Z,101009.66
2019-06-20T04:52:03.541Z,101008.69
2019-06-20T04:54:35.555Z,101012.64
2019-06-20T04:57:06.240Z,101006.27
2019-06-20T04:59:39.610Z,101004.52
2019-06-20T05:02:14.869Z,101006.48
2019-06-20T05:04:47.652Z,101003.13
2019-06-20T05:07:20.900Z,101004.66
2019-06-20T05:09:51.717Z,101005.27
2019-06-20T05:12:27.385Z,101016.57
2019-06-20T05:15:00.455Z,101029.63
2019-06-20T05:17:31.061Z,101030.87
2019-06-20T05:20:05.277Z,101037.84
2019-06-20T05:22:36.742Z,101040.61
2019-06-20T05:25:10.473Z,101043.64
2019-06-20T05:27:41.002Z,101043.08
2019-06-20T05:30:12.933Z,101050.23
2019-06-20T05:32:43.093Z,101049.52
2019-06-20T05:35:13.507Z,101055.24
2019-06-20T05:37:43.697Z,101057.00
2019-06-20T05:40:14.089Z,101050.46
2019-06-20T05:42:46.757Z,101048.27
2019-06-20T05:45:17.099Z,101048.53
2019-06-20T05:47:47.303Z,101045.19
2019-06-20T05:50:17.617Z,101049.00
2019-06-20T05:52:50.143Z,101051.57
2019-06-20T05:55:20.328Z,101050.37
2019-06-20T05:57:50.479Z,101053.76
2019-06-20T06:00:22.357Z,101056.55
2019-06-20T06:02:52.597Z,101063.50
2019-06-20T06:05:24.133Z,101060.16
2019-06-20T06:07:54.279Z,101056.09
2019-06-20T06:10:24.488Z,101055.95
2019-06-20T06:12:54.688Z,101061.46
2019-06-20T06:15:30.813Z,101064.86
2019-06-20T06:18:01.171Z,101064.69
2019-06-20T06:20:31.359Z,101053.77
2019-06-20T06:23:01.599Z,101057.56
2019-06-20T06:25:31.703Z,101053.98
2019-06-20T06:28:01.827Z,101073.82
2019-06-20T06:30:31.931Z,101066.70
2019-06-20T06:33:02.131Z,101058.41
2019-06-20T06:35:32.184Z,101057.23
2019-06-20T06:38:02.380Z,101061.98
2019-06-20T06:40:32.672Z,101066.34
2019-06-20T06:43:02.835Z,101064.75
2019-06-20T06:45:32.930Z,101060.80
2019-06-20T06:48:03.116Z,101067.55
2019-06-20T06:50:34.411Z,101066.14
2019-06-20T06:53:04.521Z,101072.11
2019-06-20T06:55:34.629Z,101071.49
2019-06-20T06:58:04.786Z,101067.94
2019-06-20T07:00:34.935Z,101076.47
2019-06-20T07:03:05.865Z,101070.30
2019-06-20T07:05:36.271Z,101060.16
2019-06-20T07:08:06.678Z,101060.89
2019-06-20T07:10:36.879Z,101066.89
2019-06-20T07:13:07.616Z,101068.23
2019-06-20T07:15:37.849Z,101081.39
2019-06-20T07:18:09.601Z,101079.45
2019-06-20T07:20:39.789Z,101085.20
2019-06-20T07:23:12.666Z,101089.55
2019-06-20T07:25:42.835Z,101092.95
2019-06-20T07:28:12.942Z,101097.09
2019-06-20T07:30:43.206Z,101098.49
2019-06-20T07:33:13.327Z,101096.51
2019-06-20T07:35:43.631Z,101096.11
2019-06-20T07:38:13.859Z,101102.24
2019-06-20T07:40:44.106Z,101098.90
2019-06-20T07:43:14.239Z,101103.62
2019-06-20T07:46:01.147Z,101104.22
2019-06-20T07:48:16.385Z,101104.05
2019-06-20T07:50:46.674Z,101100.47
2019-06-20T07:53:16.887Z,101102.47
2019-06-20T07:55:47.025Z,101097.31
2019-06-20T07:58:17.301Z,101103.25
2019-06-20T08:00:47.418Z,101100.47
2019-06-20T08:03:17.743Z,101103.84
2019-06-20T08:05:49.434Z,101099.25
2019-06-20T08:08:21.599Z,101100.47
2019-06-20T08:10:51.719Z,101100.20
2019-06-20T08:13:21.862Z,101109.36
2019-06-20T08:15:51.973Z,101102.19
2019-06-20T08:18:22.129Z,101102.83
2019-06-20T08:20:52.216Z,101106.41
2019-06-20T08:23:22.387Z,101102.45
2019-06-20T08:25:52.459Z,101111.59
2019-06-20T08:28:22.692Z,101106.19
2019-06-20T08:30:52.856Z,101108.01
2019-06-20T08:33:23.066Z,101108.00
2019-06-20T08:35:53.209Z,101104.81
2019-06-20T08:38:24.457Z,101107.59
2019-06-20T08:40:56.559Z,101113.19
2019-06-20T08:44:20.155Z,101116.55
2019-06-20T08:47:25.100Z,101115.77
2019-06-20T08:49:58.165Z,101130.59
2019-06-20T08:52:28.882Z,101121.41
2019-06-20T08:54:59.612Z,101127.32
2019-06-20T08:57:30.166Z,101124.61
2019-06-20T09:00:00.770Z,101129.05
2019-06-20T09:02:31.021Z,101125.08
2019-06-20T09:07:31.393Z,101123.69
2019-06-20T09:10:02.010Z,101134.40
2019-06-20T09:12:32.358Z,101136.42
2019-06-20T09:15:03.266Z,101135.81
2019-06-20T09:17:34.979Z,101130.24
2019-06-20T09:20:06.286Z,101141.16
2019-06-20T09:22:36.514Z,101139.80
2019-06-20T09:25:07.659Z,101136.81
2019-06-20T09:27:37.853Z,101135.60
2019-06-20T09:30:09.239Z,101136.61
2019-06-20T09:32:39.421Z,101144.14
2019-06-20T09:35:11.095Z,101141.72
2019-06-20T09:37:41.348Z,101143.72
2019-06-20T09:40:12.470Z,101147.73
2019-06-20T09:42:42.791Z,101149.53
2019-06-20T09:45:13.570Z,101154.29
2019-06-20T09:47:45.780Z,101161.61
2019-06-20T09:50:16.235Z,101154.08
2019-06-20T09:52:49.789Z,101160.84
2019-06-20T09:55:18.350Z,101163.02
2019-06-20T09:57:49.111Z,101164.00
2019-06-20T10:00:23.040Z,101159.04
2019-06-20T10:02:55.393Z,101159.95
2019-06-20T10:05:25.171Z,101156.46
2019-06-20T10:07:56.691Z,101153.83
2019-06-20T10:10:29.892Z,101152.41
2019-06-20T10:13:00.283Z,101155.20
2019-06-20T10:15:31.567Z,101160.52
2019-06-20T10:18:04.284Z,101163.34
2019-06-20T10:20:34.445Z,101167.25
2019-06-20T10:23:04.752Z,101171.45
2019-06-20T10:25:34.909Z,101174.48
2019-06-20T10:28:06.748Z,101204.76
2019-06-20T10:30:36.890Z,101193.95
2019-06-20T10:33:07.138Z,101189.68
2019-06-20T10:35:37.311Z,101196.02
2019-06-20T10:38:07.507Z,101204.36
2019-06-20T10:40:37.624Z,101204.83
2019-06-20T10:43:07.792Z,101207.82
2019-06-20T10:45:39.196Z,101217.91
2019-06-20T10:48:09.487Z,101217.77
2019-06-20T10:50:39.604Z,101213.50
2019-06-20T10:53:11.496Z,101219.33
2019-06-20T10:55:43.234Z,101215.12
2019-06-20T10:58:15.086Z,101218.23
2019-06-20T11:00:46.134Z,101217.31
2019-06-20T11:03:16.279Z,101219.36
2019-06-20T11:05:48.058Z,101222.97
2019-06-20T11:08:18.389Z,101225.35
2019-06-20T11:10:50.196Z,101231.48
2019-06-20T11:13:35.949Z,101232.92
2019-06-20T11:16:06.804Z,101241.19
2019-06-20T11:18:37.371Z,101237.30
2019-06-20T11:21:11.937Z,101219.50
2019-06-20T11:23:43.016Z,101226.14
2019-06-20T11:26:13.462Z,101217.93
2019-06-20T11:28:46.847Z,101225.19
2019-06-20T11:31:16.927Z,101225.77
2019-06-20T11:33:48.421Z,101234.29
2019-06-20T11:36:21.932Z,101246.37
2019-06-20T11:38:52.238Z,101254.12
2019-06-20T11:41:46.593Z,101262.03
2019-06-20T11:44:17.025Z,101270.01
2019-06-20T11:46:47.187Z,101265.28
2019-06-20T11:49:17.325Z,101270.08
2019-06-20T11:51:47.514Z,101269.02
2019-06-20T11:54:17.965Z,101262.45
2019-06-20T11:56:48.116Z,101273.59
2019-06-20T11:59:18.293Z,101277.23
2019-06-20T12:01:49.068Z,101280.77
2019-06-20T12:04:20.402Z,101284.03
2019-06-20T12:06:50.735Z,101289.77
2019-06-20T12:09:21.099Z,101297.41
2019-06-20T12:11:51.318Z,101294.91
2019-06-20T12:14:21.546Z,101291.71
2019-06-20T12:16:53.035Z,101300.55
2019-06-20T12:19:23.258Z,101302.75
2019-06-20T12:21:53.456Z,101300.13
2019-06-20T12:24:23.639Z,101311.84
2019-06-20T12:26:56.286Z,101309.66
2019-06-20T12:29:26.507Z,101319.94
2019-06-20T12:31:59.357Z,101319.13
2019-06-20T12:34:30.736Z,101312.75
2019-06-20T12:37:00.947Z,101322.67
2019-06-20T12:39:31.097Z,101327.06
2019-06-20T12:42:01.284Z,101326.84
2019-06-20T12:44:31.443Z,101334.45
2019-06-20T12:47:01.675Z,101330.35
2019-06-20T12:49:33.374Z,101327.19
2019-06-20T12:52:03.545Z,101324.23
2019-06-20T12:54:34.750Z,101324.07
2019-06-20T12:57:04.850Z,101329.79
2019-06-20T12:59:34.970Z,101329.88
2019-06-20T13:02:05.477Z,101334.52
2019-06-20T13:04:38.232Z,101338.94
2019-06-20T13:07:08.720Z,101332.73
2019-06-20T13:09:40.748Z,101332.08
2019-06-20T13:12:12.945Z,101331.53
2019-06-20T13:14:45.637Z,101342.66
2019-06-20T13:17:21.546Z,101336.58
2019-06-20T13:19:52.494Z,101340.03
2019-06-20T13:22:23.265Z,101348.08
2019-06-20T13:24:53.511Z,101349.97
2019-06-20T13:27:23.746Z,101357.23
2019-06-20T13:29:54.064Z,101357.00
2019-06-20T13:32:24.325Z,101351.39
2019-06-20T13:34:54.520Z,101362.45
2019-06-20T13:37:27.718Z,101352.31
2019-06-20T13:39:57.866Z,101353.41
2019-06-20T13:42:28.046Z,101355.92
2019-06-20T13:44:58.271Z,101359.27
2019-06-20T13:47:28.645Z,101361.79
2019-06-20T13:49:58.886Z,101356.51
2019-06-20T13:52:33.959Z,101367.66
2019-06-20T13:55:03.985Z,101374.73
2019-06-20T13:57:35.782Z,101370.94
2019-06-20T14:00:07.131Z,101368.93
2019-06-20T14:02:38.059Z,101373.40
2019-06-20T14:05:10.106Z,101376.16
2019-06-20T14:07:46.656Z,101373.01
2019-06-20T14:10:13.508Z,101382.41
2019-06-20T14:12:44.726Z,101367.12
2019-06-20T14:15:15.505Z,101376.02
2019-06-20T14:17:47.040Z,101371.82
2019-06-20T14:20:23.751Z,101376.55
2019-06-20T14:23:00.998Z,101379.50
2019-06-20T14:25:34.265Z,101381.30
2019-06-20T14:28:06.044Z,101390.58
2019-06-20T14:30:36.276Z,101395.42
2019-06-20T14:33:11.738Z,101401.03
2019-06-20T14:35:43.558Z,101397.12
2019-06-20T14:38:15.150Z,101396.03
2019-06-20T14:40:50.423Z,101394.06
2019-06-20T14:43:20.711Z,101393.68
2019-06-20T14:45:51.215Z,101390.82
2019-06-20T14:48:22.688Z,101393.78
2019-06-20T14:50:55.499Z,101392.02
2019-06-20T14:53:45.668Z,101391.03
2019-06-20T14:56:16.075Z,101390.83
2019-06-20T14:58:46.762Z,101400.17
2019-06-20T15:01:20.348Z,101400.34
2019-06-20T15:03:51.640Z,101395.81
2019-06-20T15:06:22.175Z,101396.01
2019-06-20T15:09:00.245Z,101392.80
2019-06-20T15:11:28.207Z,101393.63
2019-06-20T15:14:00.524Z,101392.37
2019-06-20T15:16:33.799Z,101391.28
2019-06-20T15:19:04.153Z,101392.38
2019-06-20T15:21:36.003Z,101393.30
2019-06-20T15:24:07.098Z,101403.73
2019-06-20T15:26:37.489Z,101396.42
2019-06-20T15:29:07.756Z,101396.61
2019-06-20T15:31:38.078Z,101409.21
2019-06-20T15:34:10.561Z,101405.66
2019-06-20T15:36:40.862Z,101398.42
2019-06-20T15:39:11.363Z,101406.16
2019-06-20T15:41:42.156Z,101405.08
2019-06-20T15:44:20.397Z,101402.45
2019-06-20T15:46:55.287Z,101409.54
2019-06-20T15:49:28.089Z,101406.61
2019-06-20T15:52:03.874Z,101406.61
2019-06-20T15:54:34.607Z,101410.17
2019-06-20T15:57:06.992Z,101410.07
2019-06-20T15:59:48.506Z,101412.84
2019-06-20T16:02:22.889Z,101412.98
2019-06-20T16:04:57.471Z,101419.63
2019-06-20T16:07:31.550Z,101426.00
2019-06-20T16:10:13.552Z,101425.80
2019-06-20T16:12:47.547Z,101423.83
2019-06-20T16:15:30.572Z,101424.33
2019-06-20T16:18:01.039Z,101429.68
2019-06-20T16:20:31.213Z,101430.96
2019-06-20T16:23:03.169Z,101429.36
2019-06-20T16:25:35.460Z,101435.59
2019-06-20T16:28:05.823Z,101437.02
2019-06-20T16:30:35.844Z,101431.88
2019-06-20T16:33:06.182Z,101436.72
2019-06-20T16:35:36.462Z,101438.75
2019-06-20T16:38:06.675Z,101439.63
2019-06-20T16:40:45.547Z,101442.19
2019-06-20T16:43:15.792Z,101439.07
2019-06-20T16:45:46.061Z,101441.87
2019-06-20T16:48:17.834Z,101438.09
2019-06-20T16:50:47.967Z,101434.80
2019-06-20T16:53:19.783Z,101445.83
2019-06-20T16:55:51.642Z,101440.59
2019-06-20T16:58:23.082Z,101446.92
2019-06-20T17:00:57.169Z,101449.64
2019-06-20T17:03:40.792Z,101440.02
2019-06-20T17:06:03.769Z,101442.69
2019-06-20T17:08:34.020Z,101442.33
2019-06-20T17:11:04.252Z,101444.84
2019-06-20T17:13:51.372Z,101437.83
2019-06-20T17:16:25.220Z,101443.70
2019-06-20T17:19:00.211Z,101452.78
2019-06-20T17:21:35.400Z,101441.23
2019-06-20T17:24:04.763Z,101450.71
2019-06-20T17:26:38.835Z,101442.03
2019-06-20T17:30:13.564Z,101444.85
2019-06-20T17:32:55.864Z,101456.36
2019-06-20T17:35:25.483Z,101450.41
2019-06-20T17:38:48.646Z,101449.25
2019-06-20T17:46:15.872Z,101446.80
2019-06-20T17:49:08.952Z,101457.97
2019-06-20T17:52:11.630Z,101452.38
2019-06-20T17:55:54.359Z,101445.34
2019-06-20T17:58:43.552Z,101458.67
2019-06-20T18:01:29.368Z,101459.61
2019-06-20T18:04:45.047Z,101459.77
2019-06-20T18:07:29.068Z,101467.42
2019-06-20T18:12:05.932Z,101459.46
2019-06-20T18:14:12.716Z,101467.92
2019-06-20T18:17:14.832Z,101462.55
2019-06-20T18:20:16.828Z,101470.53
2019-06-20T18:26:22.620Z,101483.08
2019-06-20T18:29:55.937Z,101476.89
2019-06-20T18:32:35.426Z,101486.45
2019-06-20T18:35:55.371Z,101491.61
2019-06-20T18:38:46.456Z,101488.02
2019-06-20T18:41:36.855Z,101496.98
2019-06-20T18:44:14.286Z,101499.93
2019-06-20T18:46:50.320Z,101503.03
2019-06-20T18:49:22.488Z,101499.69
2019-06-20T18:51:56.538Z,101510.83
2019-06-20T18:54:28.543Z,101512.23
2019-06-20T18:57:11.714Z,101514.84
2019-06-20T18:59:45.090Z,101511.02
2019-06-20T19:02:21.340Z,101514.93
2019-06-20T19:05:06.779Z,101521.72
2019-06-20T19:08:14.202Z,101521.10
2019-06-20T19:11:09.764Z,101531.14
2019-06-20T19:14:01.427Z,101526.92
2019-06-20T19:16:41.150Z,101532.94
2019-06-20T19:19:47.142Z,101538.80
2019-06-20T19:22:42.487Z,101540.07
2019-06-20T19:25:48.952Z,101551.27
2019-06-20T19:28:48.997Z,101548.96
2019-06-20T19:31:40.653Z,101547.30
2019-06-20T19:34:38.283Z,101540.56
2019-06-20T19:37:25.744Z,101544.45
2019-06-20T19:40:03.149Z,101546.53
2019-06-20T19:42:58.433Z,101550.16
2019-06-20T19:45:40.791Z,101555.63
2019-06-20T19:48:49.367Z,101559.75
2019-06-20T19:51:44.976Z,101556.09
2019-06-20T19:54:32.432Z,101554.12
2019-06-20T19:57:36.358Z,101559.88
2019-06-20T20:00:38.204Z,101561.52
2019-06-20T20:03:20.826Z,101569.77
2019-06-20T20:06:35.969Z,101571.30
2019-06-20T20:08:58.228Z,101580.72
2019-06-20T20:11:50.408Z,101573.48
2019-06-20T20:14:45.875Z,101581.27
2019-06-20T20:17:45.499Z,101580.84
2019-06-20T20:20:29.390Z,101585.22
2019-06-20T20:23:11.801Z,101588.69
2019-06-20T20:25:48.959Z,101590.07
2019-06-20T20:28:26.644Z,101586.02
2019-06-20T20:31:26.270Z,101585.11
2019-06-20T20:34:02.467Z,101588.00
2019-06-20T20:36:46.599Z,101584.39
2019-06-20T20:39:47.910Z,101587.77
2019-06-20T20:42:29.264Z,101585.59
2019-06-20T20:45:12.453Z,101582.74
2019-06-20T20:47:56.318Z,101581.16
2019-06-20T20:50:53.507Z,101582.59
2019-06-20T20:53:22.995Z,101584.72
2019-06-20T20:56:02.710Z,101587.41
2019-06-20T20:58:45.787Z,101590.99
2019-06-20T21:01:22.824Z,101584.75
2019-06-20T21:03:53.658Z,101588.67
2019-06-20T21:06:29.949Z,101586.19
2019-06-20T21:09:01.787Z,101593.84
2019-06-20T21:11:41.362Z,101589.66
2019-06-20T21:14:12.044Z,101594.32
2019-06-20T21:16:48.467Z,101598.38
2019-06-20T21:19:20.860Z,101594.97
2019-06-20T21:21:56.281Z,101593.74
2019-06-20T21:24:30.065Z,101598.46
2019-06-20T21:27:00.815Z,101598.46
2019-06-20T21:29:33.054Z,101591.85
2019-06-20T21:32:05.396Z,101602.97
2019-06-20T21:34:36.066Z,101604.50
2019-06-20T21:37:09.016Z,101606.13
2019-06-20T21:39:42.521Z,101596.03
2019-06-20T21:42:16.683Z,101610.34
2019-06-20T21:44:49.969Z,101610.28
2019-06-20T21:47:21.451Z,101605.41
2019-06-20T21:49:56.724Z,101605.91
2019-06-20T21:52:27.570Z,101610.20
2019-06-20T21:54:58.030Z,101608.83
2019-06-20T21:57:30.454Z,101617.20
2019-06-20T22:00:07.584Z,101610.70
2019-06-20T22:02:45.145Z,101612.47
2019-06-20T22:05:19.835Z,101620.03
2019-06-20T22:07:53.154Z,101631.34
2019-06-20T22:10:26.476Z,101627.39
2019-06-20T22:13:08.848Z,101624.12
2019-06-20T22:15:41.222Z,101623.89
2019-06-20T22:18:16.779Z,101626.80
2019-06-20T22:20:50.879Z,101637.88
2019-06-20T22:23:23.661Z,101632.49
2019-06-20T22:25:55.727Z,101631.45
2019-06-20T22:28:27.349Z,101633.72
2019-06-20T22:31:00.993Z,101634.75
2019-06-20T22:33:37.889Z,101629.34
2019-06-20T22:36:14.619Z,101636.98
2019-06-20T22:38:49.733Z,101644.44
2019-06-20T22:41:27.353Z,101643.05
2019-06-20T22:43:59.962Z,101636.22
2019-06-20T22:46:34.095Z,101631.34
2019-06-20T22:49:14.676Z,101629.95
2019-06-20T22:51:42.908Z,101632.11
2019-06-20T22:54:35.136Z,101623.95
2019-06-20T22:57:19.446Z,101627.84
2019-06-20T22:59:53.262Z,101634.22
2019-06-20T23:02:28.189Z,101632.72
2019-06-20T23:05:00.078Z,101632.19
2019-06-20T23:07:54.567Z,101633.22
2019-06-20T23:11:03.913Z,101639.55
2019-06-20T23:13:43.838Z,101636.71
2019-06-20T23:16:19.528Z,101636.56
2019-06-20T23:18:50.710Z,101639.17
2019-06-20T23:21:22.654Z,101638.59
2019-06-20T23:23:57.073Z,101639.63
2019-06-20T23:26:32.065Z,101636.71
2019-06-20T23:29:25.350Z,101625.07
2019-06-20T23:32:01.103Z,101636.22
2019-06-20T23:34:35.335Z,101639.70
2019-06-20T23:37:12.567Z,101637.45
2019-06-20T23:39:46.250Z,101630.73
2019-06-20T23:42:18.222Z,101630.45
2019-06-20T23:44:52.462Z,101625.80
2019-06-20T23:47:34.562Z,101627.77
2019-06-20T23:50:10.323Z,101630.80
2019-06-20T23:53:20.545Z,101626.80
2019-06-20T23:55:52.845Z,101626.00
2019-06-20T23:58:25.546Z,101630.37
